createdAt,value
2017-11-30T00:00:44.340Z,99858.38
2017-11-30T00:03:12.270Z,99856.45
2017-11-30T00:05:40.190Z,99852.59
2017-11-30T00:08:08.080Z,99858.77
2017-11-30T00:10:36.058Z,99860.91
2017-11-30T00:13:03.966Z,99858.23
2017-11-30T00:15:31.871Z,99856.48
2017-11-30T00:17:59.799Z,99854.17
2017-11-30T00:20:28.079Z,99852.72
2017-11-30T00:22:55.981Z,99855.95
2017-11-30T00:25:23.928Z,99851.41
2017-11-30T00:27:51.830Z,99857.20
2017-11-30T00:30:19.764Z,99854.94
2017-11-30T00:32:47.749Z,99851.64
2017-11-30T00:35:15.684Z,99857.13
2017-11-30T00:37:44.005Z,99856.77
2017-11-30T00:40:11.927Z,99853.64
2017-11-30T00:42:51.556Z,99849.17
2017-11-30T00:45:19.887Z,99845.91
2017-11-30T00:47:47.790Z,99845.28
2017-11-30T00:50:15.686Z,99848.61
2017-11-30T00:52:43.598Z,99843.06
2017-11-30T00:55:11.490Z,99846.57
2017-11-30T00:57:39.395Z,99839.11
2017-11-30T01:00:07.378Z,99839.37
2017-11-30T01:02:35.270Z,99836.91
2017-11-30T01:05:03.174Z,99841.31
2017-11-30T01:07:31.522Z,99835.58
2017-11-30T01:09:59.428Z,99838.96
2017-11-30T01:12:27.768Z,99836.64
2017-11-30T01:14:55.687Z,99833.66
2017-11-30T01:17:23.623Z,99832.20
2017-11-30T01:19:51.531Z,99827.16
2017-11-30T01:22:19.557Z,99823.71
2017-11-30T01:24:47.454Z,99817.67
2017-11-30T01:27:15.790Z,99820.88
2017-11-30T01:29:43.765Z,99818.34
2017-11-30T01:32:11.664Z,99820.90
2017-11-30T01:34:39.957Z,99823.64
2017-11-30T01:37:07.875Z,99827.45
2017-11-30T01:39:35.781Z,99823.84
2017-11-30T01:42:04.088Z,99821.39
2017-11-30T01:44:32.017Z,99814.25
2017-11-30T01:47:00.312Z,99812.97
2017-11-30T01:49:28.246Z,99807.95
2017-11-30T01:51:56.160Z,99815.99
2017-11-30T01:54:24.057Z,99812.92
2017-11-30T01:56:51.951Z,99803.17
2017-11-30T01:59:19.868Z,99810.81
2017-11-30T02:01:47.756Z,99818.20
2017-11-30T02:04:15.645Z,99820.39
2017-11-30T02:06:43.573Z,99821.89
2017-11-30T02:09:11.470Z,99820.19
2017-11-30T02:11:39.369Z,99819.88
2017-11-30T02:14:07.679Z,99820.96
2017-11-30T02:16:35.569Z,99818.00
2017-11-30T02:19:03.557Z,99814.66
2017-11-30T02:21:31.465Z,99806.22
2017-11-30T02:23:59.362Z,99808.32
2017-11-30T02:26:27.359Z,99803.70
2017-11-30T02:28:55.273Z,99797.59
2017-11-30T02:31:23.211Z,99798.36
2017-11-30T02:33:51.126Z,99797.78
2017-11-30T02:36:19.040Z,99797.92
2017-11-30T02:38:46.946Z,99800.79
2017-11-30T02:41:14.876Z,99801.04
2017-11-30T02:43:42.765Z,99797.83
2017-11-30T02:46:11.063Z,99804.16
2017-11-30T02:48:38.968Z,99795.02
2017-11-30T02:51:06.867Z,99799.34
2017-11-30T02:53:35.193Z,99797.16
2017-11-30T02:56:03.085Z,99794.69
2017-11-30T02:58:31.001Z,99798.86
2017-11-30T03:00:59.300Z,99794.86
2017-11-30T03:03:27.221Z,99791.59
2017-11-30T03:05:55.139Z,99787.92
2017-11-30T03:08:23.036Z,99788.14
2017-11-30T03:10:50.945Z,99785.70
2017-11-30T03:13:19.252Z,99788.19
2017-11-30T03:15:47.250Z,99781.34
2017-11-30T03:18:15.169Z,99783.03
2017-11-30T03:20:43.077Z,99783.97
2017-11-30T03:23:11.014Z,99786.39
2017-11-30T03:25:38.934Z,99791.18
2017-11-30T03:28:06.838Z,99791.66
2017-11-30T03:30:34.746Z,99787.36
2017-11-30T03:33:02.649Z,99798.72
2017-11-30T03:35:30.564Z,99790.98
2017-11-30T03:37:58.456Z,99791.66
2017-11-30T03:40:26.354Z,99790.22
2017-11-30T03:42:54.325Z,99792.11
2017-11-30T03:45:22.632Z,99786.89
2017-11-30T03:47:50.534Z,99789.73
2017-11-30T03:50:18.429Z,99781.34
2017-11-30T03:52:46.733Z,99779.70
2017-11-30T03:55:14.672Z,99776.95
2017-11-30T03:57:42.625Z,99778.19
2017-11-30T04:00:10.545Z,99785.64
2017-11-30T04:02:38.450Z,99783.81
2017-11-30T04:05:06.373Z,99790.61
2017-11-30T04:07:34.316Z,99788.03
2017-11-30T04:10:02.242Z,99791.56
2017-11-30T04:12:30.196Z,99795.05
2017-11-30T04:14:58.097Z,99787.91
2017-11-30T04:17:26.017Z,99788.33
2017-11-30T04:19:53.921Z,99794.08
2017-11-30T04:22:21.833Z,99788.02
2017-11-30T04:24:50.133Z,99785.66
2017-11-30T04:27:18.045Z,99786.23
2017-11-30T04:29:45.950Z,99784.07
2017-11-30T04:32:14.252Z,99781.45
2017-11-30T04:34:42.146Z,99774.84
2017-11-30T04:37:10.062Z,99775.02
2017-11-30T04:39:38.352Z,99774.03
2017-11-30T04:42:06.262Z,99773.23
2017-11-30T04:44:34.163Z,99769.25
2017-11-30T04:47:02.132Z,99762.86
2017-11-30T04:49:30.045Z,99764.94
2017-11-30T04:51:57.949Z,99768.27
2017-11-30T04:54:25.865Z,99770.06
2017-11-30T04:56:53.761Z,99764.54
2017-11-30T04:59:21.653Z,99764.98
2017-11-30T05:01:49.574Z,99766.50
2017-11-30T05:04:17.465Z,99773.13
2017-11-30T05:06:45.370Z,99777.58
2017-11-30T05:09:13.281Z,99768.85
2017-11-30T05:11:41.224Z,99767.38
2017-11-30T05:14:09.130Z,99771.06
2017-11-30T05:16:37.038Z,99773.76
2017-11-30T05:19:04.993Z,99773.28
2017-11-30T05:21:32.916Z,99773.44
2017-11-30T05:24:00.824Z,99769.72
2017-11-30T05:26:28.728Z,99776.42
2017-11-30T05:28:56.633Z,99774.94
2017-11-30T05:31:24.551Z,99779.45
2017-11-30T05:33:52.841Z,99774.80
2017-11-30T05:36:21.145Z,99778.67
2017-11-30T05:38:49.057Z,99769.08
2017-11-30T05:41:16.974Z,99767.73
2017-11-30T05:43:44.890Z,99773.04
2017-11-30T05:46:12.810Z,99774.38
2017-11-30T05:48:40.714Z,99767.96
2017-11-30T05:51:08.647Z,99774.04
2017-11-30T05:53:36.563Z,99768.05
2017-11-30T05:56:04.484Z,99773.39
2017-11-30T05:58:32.386Z,99768.05
2017-11-30T06:01:00.354Z,99764.80
2017-11-30T06:03:28.250Z,99771.22
2017-11-30T06:05:56.153Z,99771.02
2017-11-30T06:08:24.045Z,99759.84
2017-11-30T06:10:51.945Z,99771.58
2017-11-30T06:13:19.841Z,99762.98
2017-11-30T06:15:48.133Z,99767.70
2017-11-30T06:18:16.038Z,99768.45
2017-11-30T06:20:44.022Z,99768.75
2017-11-30T06:23:11.923Z,99760.91
2017-11-30T06:25:40.257Z,99762.00
2017-11-30T06:28:08.181Z,99764.28
2017-11-30T06:30:36.099Z,99763.59
2017-11-30T06:33:03.998Z,99768.02
2017-11-30T06:35:32.300Z,99762.78
2017-11-30T06:38:00.204Z,99758.37
2017-11-30T06:40:28.136Z,99761.88
2017-11-30T06:43:03.889Z,99761.97
2017-11-30T06:45:31.809Z,99760.80
2017-11-30T06:47:59.716Z,99759.24
2017-11-30T06:50:27.621Z,99771.04
2017-11-30T06:52:55.520Z,99765.44
2017-11-30T06:55:23.830Z,99761.69
2017-11-30T06:57:51.749Z,99760.88
2017-11-30T07:00:19.678Z,99775.25
2017-11-30T07:02:47.598Z,99776.41
2017-11-30T07:05:15.534Z,99775.06
2017-11-30T07:07:43.463Z,99775.95
2017-11-30T07:10:11.378Z,99775.55
2017-11-30T07:12:39.297Z,99766.22
2017-11-30T07:15:07.212Z,99773.59
2017-11-30T07:17:35.135Z,99773.97
2017-11-30T07:20:03.037Z,99779.07
2017-11-30T07:22:30.940Z,99779.70
2017-11-30T07:24:58.845Z,99775.97
2017-11-30T07:27:26.776Z,99779.61
2017-11-30T07:29:54.676Z,99777.91
2017-11-30T07:32:22.593Z,99778.69
2017-11-30T07:34:51.135Z,99784.98
2017-11-30T07:37:19.043Z,99771.45
2017-11-30T07:39:46.948Z,99779.88
2017-11-30T07:42:15.264Z,99779.05
2017-11-30T07:44:43.170Z,99784.96
2017-11-30T07:47:11.106Z,99776.11
2017-11-30T07:49:39.051Z,99782.20
2017-11-30T07:52:06.959Z,99787.16
2017-11-30T07:54:34.919Z,99793.03
2017-11-30T07:57:02.821Z,99782.87
2017-11-30T07:59:31.117Z,99780.08
2017-11-30T08:01:59.018Z,99777.94
2017-11-30T08:04:26.928Z,99772.19
2017-11-30T08:06:55.259Z,99771.75
2017-11-30T08:09:23.205Z,99775.30
2017-11-30T08:11:51.113Z,99777.45
2017-11-30T08:14:19.004Z,99766.27
2017-11-30T08:16:46.901Z,99758.50
2017-11-30T08:19:14.797Z,99760.21
2017-11-30T08:21:42.724Z,99754.98
2017-11-30T08:24:11.041Z,99742.64
2017-11-30T08:26:38.957Z,99747.17
2017-11-30T08:29:06.858Z,99731.97
2017-11-30T08:31:34.780Z,99728.31
2017-11-30T08:34:02.874Z,99728.09
2017-11-30T08:36:31.190Z,99726.36
2017-11-30T08:38:59.093Z,99723.19
2017-11-30T08:41:27.000Z,99728.28
2017-11-30T08:43:54.942Z,99726.10
2017-11-30T08:46:22.869Z,99727.99
2017-11-30T08:48:50.780Z,99730.41
2017-11-30T08:51:19.110Z,99728.44
2017-11-30T08:53:47.018Z,99728.72
2017-11-30T08:56:14.943Z,99727.15
2017-11-30T08:58:42.853Z,99723.38
2017-11-30T09:01:10.820Z,99725.44
2017-11-30T09:03:39.086Z,99723.75
2017-11-30T09:06:07.450Z,99725.92
2017-11-30T09:08:35.369Z,99722.14
2017-11-30T09:11:03.698Z,99730.71
2017-11-30T09:13:31.609Z,99724.43
2017-11-30T09:15:59.934Z,99727.84
2017-11-30T09:18:27.841Z,99731.12
2017-11-30T09:20:55.756Z,99724.05
2017-11-30T09:23:23.665Z,99722.64
2017-11-30T09:25:51.608Z,99725.06
2017-11-30T09:28:19.517Z,99726.41
2017-11-30T09:30:47.429Z,99729.39
2017-11-30T09:33:15.330Z,99725.95
2017-11-30T09:35:43.251Z,99731.30
2017-11-30T09:38:11.998Z,99724.23
2017-11-30T09:40:39.928Z,99727.14
2017-11-30T09:43:07.933Z,99724.08
2017-11-30T09:45:35.855Z,99728.41
2017-11-30T09:48:03.765Z,99730.41
2017-11-30T09:50:31.791Z,99723.70
2017-11-30T09:52:59.765Z,99721.97
2017-11-30T09:55:27.689Z,99722.42
2017-11-30T09:57:55.592Z,99717.55
2017-11-30T10:00:23.565Z,99718.25
2017-11-30T10:02:51.500Z,99708.45
2017-11-30T10:05:19.805Z,99710.64
2017-11-30T10:07:47.719Z,99708.80
2017-11-30T10:10:15.645Z,99712.47
2017-11-30T10:12:43.547Z,99715.24
2017-11-30T10:15:11.476Z,99712.03
2017-11-30T10:17:39.376Z,99716.33
2017-11-30T10:20:07.290Z,99719.02
2017-11-30T10:22:35.596Z,99723.84
2017-11-30T10:25:03.524Z,99721.70
2017-11-30T10:27:31.832Z,99723.64
2017-11-30T10:30:00.218Z,99720.16
2017-11-30T10:32:28.392Z,99720.25
2017-11-30T10:34:56.313Z,99717.32
2017-11-30T10:37:24.232Z,99712.43
2017-11-30T10:39:52.162Z,99716.84
2017-11-30T10:42:20.100Z,99717.78
2017-11-30T10:44:48.023Z,99721.91
2017-11-30T10:47:15.934Z,99713.91
2017-11-30T10:49:43.850Z,99718.50
2017-11-30T10:52:11.768Z,99724.63
2017-11-30T10:54:39.705Z,99726.69
2017-11-30T10:57:07.676Z,99726.30
2017-11-30T10:59:35.573Z,99726.30
2017-11-30T11:02:03.500Z,99726.30
2017-11-30T11:04:31.437Z,99734.47
2017-11-30T11:06:59.354Z,99728.00
2017-11-30T11:09:27.263Z,99731.55
2017-11-30T11:11:55.173Z,99729.38
2017-11-30T11:14:23.085Z,99729.79
2017-11-30T11:16:51.014Z,99735.84
2017-11-30T11:19:18.935Z,99733.16
2017-11-30T11:21:46.840Z,99730.98
2017-11-30T11:24:14.737Z,99739.69
2017-11-30T11:26:42.659Z,99733.14
2017-11-30T11:29:10.970Z,99728.88
2017-11-30T11:31:38.873Z,99734.81
2017-11-30T11:34:06.773Z,99735.22
2017-11-30T11:36:35.073Z,99737.67
2017-11-30T11:39:02.972Z,99743.30
2017-11-30T11:41:30.874Z,99739.77
2017-11-30T11:43:58.778Z,99744.55
2017-11-30T11:46:26.683Z,99738.50
2017-11-30T11:48:54.603Z,99742.94
2017-11-30T11:51:23.268Z,99745.99
2017-11-30T11:53:51.562Z,99744.55
2017-11-30T11:56:19.485Z,99742.38
2017-11-30T11:58:47.419Z,99744.97
2017-11-30T12:01:15.326Z,99746.27
2017-11-30T12:03:43.288Z,99741.53
2017-11-30T12:06:11.225Z,99737.13
2017-11-30T12:08:39.114Z,99737.95
2017-11-30T12:11:07.046Z,99731.86
2017-11-30T12:13:34.948Z,99736.53
2017-11-30T12:16:02.953Z,99732.23
2017-11-30T12:18:30.850Z,99729.18
2017-11-30T12:20:58.752Z,99724.88
2017-11-30T12:23:26.657Z,99713.22
2017-11-30T12:25:54.564Z,99714.89
2017-11-30T12:28:22.486Z,99716.11
2017-11-30T12:30:50.805Z,99710.34
2017-11-30T12:33:18.702Z,99711.74
2017-11-30T12:35:46.647Z,99707.83
2017-11-30T12:38:14.537Z,99706.70
2017-11-30T12:40:42.449Z,99710.94
2017-11-30T12:43:10.748Z,99713.20
2017-11-30T12:45:38.654Z,99715.02
2017-11-30T12:48:06.565Z,99713.52
2017-11-30T12:50:34.898Z,99710.33
2017-11-30T12:53:02.776Z,99719.83
2017-11-30T12:55:30.701Z,99717.86
2017-11-30T12:57:58.599Z,99715.00
2017-11-30T13:00:26.497Z,99715.82
2017-11-30T13:02:54.391Z,99706.56
2017-11-30T13:05:22.292Z,99712.09
2017-11-30T13:07:50.187Z,99707.27
2017-11-30T13:10:18.104Z,99708.35
2017-11-30T13:12:46.019Z,99701.32
2017-11-30T13:15:13.930Z,99700.84
2017-11-30T13:17:41.811Z,99703.60
2017-11-30T13:20:09.705Z,99707.48
2017-11-30T13:22:37.633Z,99710.95
2017-11-30T13:25:05.567Z,99710.65
2017-11-30T13:27:33.488Z,99712.86
2017-11-30T13:30:01.386Z,99711.00
2017-11-30T13:32:29.344Z,99718.39
2017-11-30T13:34:57.241Z,99712.67
2017-11-30T13:37:25.152Z,99713.22
2017-11-30T13:39:53.044Z,99708.17
2017-11-30T13:42:20.951Z,99709.23
2017-11-30T13:44:49.252Z,99717.17
2017-11-30T13:47:17.167Z,99718.69
2017-11-30T13:49:45.068Z,99715.98
2017-11-30T13:52:13.392Z,99714.31
2017-11-30T13:54:41.311Z,99714.62
2017-11-30T13:57:09.657Z,99716.24
2017-11-30T13:59:37.579Z,99713.19
2017-11-30T14:02:05.493Z,99713.49
2017-11-30T14:04:33.425Z,99721.57
2017-11-30T14:07:01.333Z,99720.38
2017-11-30T14:09:29.228Z,99719.44
2017-11-30T14:11:57.528Z,99725.83
2017-11-30T14:14:25.428Z,99721.08
2017-11-30T14:16:53.348Z,99730.09
2017-11-30T14:19:21.639Z,99728.06
2017-11-30T14:21:49.543Z,99735.06
2017-11-30T14:24:17.452Z,99739.91
2017-11-30T14:26:45.764Z,99732.39
2017-11-30T14:29:13.661Z,99734.88
2017-11-30T14:31:41.569Z,99735.75
2017-11-30T14:34:09.934Z,99734.86
2017-11-30T14:36:37.843Z,99740.70
2017-11-30T14:39:05.738Z,99743.72
2017-11-30T14:41:33.742Z,99748.27
2017-11-30T14:44:01.652Z,99751.19
2017-11-30T14:46:29.580Z,99758.95
2017-11-30T14:48:57.512Z,99756.98
2017-11-30T14:51:25.423Z,99767.06
2017-11-30T14:53:53.763Z,99772.16
2017-11-30T14:56:21.731Z,99769.97
2017-11-30T14:58:49.667Z,99772.58
2017-11-30T15:01:17.609Z,99780.58
2017-11-30T15:03:45.891Z,99776.67
2017-11-30T15:06:14.185Z,99770.64
2017-11-30T15:08:42.159Z,99772.78
2017-11-30T15:11:10.062Z,99775.69
2017-11-30T15:13:38.002Z,99783.44
2017-11-30T15:16:05.920Z,99783.88
2017-11-30T15:18:33.880Z,99783.88
2017-11-30T15:21:02.683Z,99795.48
2017-11-30T15:23:30.579Z,99798.89
2017-11-30T15:25:58.481Z,99800.50
2017-11-30T15:28:26.376Z,99803.87
2017-11-30T15:30:54.306Z,99804.77
2017-11-30T15:33:22.213Z,99804.70
2017-11-30T15:35:50.267Z,99803.95
2017-11-30T15:38:18.198Z,99808.95
2017-11-30T15:40:46.112Z,99806.50
2017-11-30T15:43:14.010Z,99803.66
2017-11-30T15:45:42.303Z,99806.09
2017-11-30T15:48:10.223Z,99807.19
2017-11-30T15:50:38.152Z,99814.59
2017-11-30T15:53:06.051Z,99817.11
2017-11-30T15:55:33.973Z,99813.26
2017-11-30T15:58:01.868Z,99814.28
2017-11-30T16:00:29.817Z,99803.01
2017-11-30T16:02:57.727Z,99819.01
2017-11-30T16:05:25.637Z,99816.69
2017-11-30T16:07:53.948Z,99825.70
2017-11-30T16:10:21.845Z,99822.17
2017-11-30T16:12:49.742Z,99829.59
2017-11-30T16:15:18.247Z,99827.92
2017-11-30T16:17:46.153Z,99832.21
2017-11-30T16:20:14.075Z,99838.12
2017-11-30T16:22:41.972Z,99840.25
2017-11-30T16:25:09.867Z,99845.12
2017-11-30T16:27:37.836Z,99845.45
2017-11-30T16:30:05.756Z,99852.56
2017-11-30T16:32:33.643Z,99856.99
2017-11-30T16:35:01.530Z,99858.51
2017-11-30T16:37:29.445Z,99857.38
2017-11-30T16:39:57.346Z,99870.62
2017-11-30T16:42:25.370Z,99864.20
2017-11-30T16:44:53.281Z,99866.41
2017-11-30T16:47:21.180Z,99860.70
2017-11-30T16:49:49.141Z,99860.95
2017-11-30T16:52:17.011Z,99870.10
2017-11-30T16:54:44.927Z,99867.94
2017-11-30T16:57:12.839Z,99871.98
2017-11-30T16:59:40.735Z,99874.02
2017-11-30T17:02:08.628Z,99870.83
2017-11-30T17:04:36.719Z,99867.08
2017-11-30T17:07:04.625Z,99865.85
2017-11-30T17:09:32.524Z,99873.63
2017-11-30T17:12:00.827Z,99870.20
2017-11-30T17:14:28.735Z,99875.66
2017-11-30T17:19:30.833Z,99882.23
2017-11-30T17:21:58.839Z,99882.46
2017-11-30T17:24:26.736Z,99888.09
2017-11-30T17:26:54.644Z,99891.02
2017-11-30T17:29:22.956Z,99893.44
2017-11-30T17:31:50.873Z,99899.99
2017-11-30T17:34:18.791Z,99892.82
2017-11-30T17:36:46.688Z,99898.10
2017-11-30T17:39:14.588Z,99896.91
2017-11-30T17:41:42.952Z,99903.53
2017-11-30T17:44:10.840Z,99905.52
2017-11-30T17:46:39.144Z,99908.28
2017-11-30T17:49:07.048Z,99911.70
2017-11-30T17:51:34.953Z,99918.81
2017-11-30T17:54:03.253Z,99916.28
2017-11-30T17:56:31.175Z,99919.39
2017-11-30T17:58:59.135Z,99916.95
2017-11-30T18:01:27.049Z,99923.03
2017-11-30T18:03:54.944Z,99923.31
2017-11-30T18:06:22.863Z,99936.81
2017-11-30T18:08:51.162Z,99932.29
2017-11-30T18:11:19.066Z,99935.60
2017-11-30T18:13:46.959Z,99940.66
2017-11-30T18:16:15.840Z,99941.52
2017-11-30T18:18:43.743Z,99940.22
2017-11-30T18:21:12.036Z,99937.88
2017-11-30T18:23:39.945Z,99941.29
2017-11-30T18:26:07.973Z,99945.91
2017-11-30T18:28:35.883Z,99943.70
2017-11-30T18:31:03.784Z,99944.23
2017-11-30T18:33:32.080Z,99953.38
2017-11-30T18:36:00.001Z,99948.00
2017-11-30T18:38:27.910Z,99951.61
2017-11-30T18:40:55.816Z,99956.37
2017-11-30T18:43:23.748Z,99958.64
2017-11-30T18:45:52.075Z,99957.84
2017-11-30T18:48:20.047Z,99963.11
2017-11-30T18:50:47.986Z,99961.47
2017-11-30T18:53:15.875Z,99959.01
2017-11-30T18:55:43.769Z,99955.39
2017-11-30T18:58:11.664Z,99953.60
2017-11-30T19:00:39.967Z,99952.33
2017-11-30T19:03:07.874Z,99955.08
2017-11-30T19:05:35.811Z,99958.59
2017-11-30T19:08:03.715Z,99954.05
2017-11-30T19:10:31.620Z,99960.12
2017-11-30T19:12:59.523Z,99956.62
2017-11-30T19:15:27.423Z,99959.92
2017-11-30T19:17:55.350Z,99954.98
2017-11-30T19:20:23.275Z,99961.45
2017-11-30T19:22:51.559Z,99957.02
2017-11-30T19:25:19.876Z,99961.92
2017-11-30T19:27:47.775Z,99958.54
2017-11-30T19:30:15.734Z,99957.07
2017-11-30T19:32:43.644Z,99966.32
2017-11-30T19:35:11.956Z,99968.20
2017-11-30T19:37:39.869Z,99966.88
2017-11-30T19:40:07.768Z,99970.34
2017-11-30T19:42:38.056Z,99973.60
2017-11-30T19:45:06.025Z,99978.58
2017-11-30T19:47:34.003Z,99977.70
2017-11-30T19:50:02.362Z,99981.97
2017-11-30T19:52:30.262Z,99985.37
2017-11-30T19:54:58.167Z,99990.84
2017-11-30T19:57:26.234Z,99991.97
2017-11-30T19:59:54.162Z,99993.19
2017-11-30T20:02:22.461Z,100002.64
2017-11-30T20:04:50.372Z,99999.02
2017-11-30T20:07:18.276Z,100004.52
2017-11-30T20:09:50.965Z,100007.36
2017-11-30T20:12:18.883Z,100009.63
2017-11-30T20:14:46.837Z,100003.45
2017-11-30T20:17:14.843Z,100020.20
2017-11-30T20:19:42.768Z,100013.02
2017-11-30T20:22:10.705Z,100012.48
2017-11-30T20:24:39.206Z,100022.48
2017-11-30T20:27:07.509Z,100023.11
2017-11-30T20:29:35.756Z,100024.73
2017-11-30T20:32:03.713Z,100024.95
2017-11-30T20:34:31.619Z,100026.59
2017-11-30T20:36:59.609Z,100022.30
2017-11-30T20:39:27.513Z,100026.49
2017-11-30T20:41:55.829Z,100027.70
2017-11-30T20:44:23.740Z,100038.44
2017-11-30T20:46:52.055Z,100025.45
2017-11-30T20:49:19.943Z,100030.44
2017-11-30T20:51:47.874Z,100027.36
2017-11-30T20:54:15.827Z,100032.27
2017-11-30T20:56:44.141Z,100031.49
2017-11-30T20:59:12.050Z,100035.11
2017-11-30T21:01:39.987Z,100030.89
2017-11-30T21:04:07.995Z,100026.74
2017-11-30T21:06:35.915Z,100025.55
2017-11-30T21:09:03.835Z,100027.05
2017-11-30T21:11:32.537Z,100031.93
2017-11-30T21:14:00.475Z,100032.12
2017-11-30T21:16:28.410Z,100032.02
2017-11-30T21:18:56.325Z,100031.05
2017-11-30T21:21:24.635Z,100039.00
2017-11-30T21:23:52.542Z,100034.06
2017-11-30T21:26:20.579Z,100036.89
2017-11-30T21:28:48.497Z,100039.12
2017-11-30T21:31:16.410Z,100042.48
2017-11-30T21:33:44.302Z,100040.34
2017-11-30T21:36:12.216Z,100054.03
2017-11-30T21:38:40.124Z,100041.70
2017-11-30T21:41:08.497Z,100038.45
2017-11-30T21:43:37.363Z,100044.33
2017-11-30T21:46:05.755Z,100042.75
2017-11-30T21:48:33.867Z,100047.16
2017-11-30T21:51:01.784Z,100052.62
2017-11-30T21:53:30.074Z,100050.22
2017-11-30T21:55:57.998Z,100051.88
2017-11-30T21:58:25.921Z,100060.78
2017-11-30T22:00:53.848Z,100065.28
2017-11-30T22:03:21.748Z,100064.20
2017-11-30T22:05:49.664Z,100063.91
2017-11-30T22:08:17.640Z,100074.58
2017-11-30T22:10:45.540Z,100069.38
2017-11-30T22:13:13.633Z,100073.34
2017-11-30T22:15:41.562Z,100077.00
2017-11-30T22:18:09.489Z,100072.97
2017-11-30T22:20:37.654Z,100074.36
2017-11-30T22:23:05.795Z,100073.52
2017-11-30T22:25:34.108Z,100068.80
2017-11-30T22:28:02.017Z,100060.97
2017-11-30T22:30:29.931Z,100061.91
2017-11-30T22:32:57.947Z,100064.88
2017-11-30T22:35:25.887Z,100064.49
2017-11-30T22:37:53.763Z,100064.08
2017-11-30T22:40:21.693Z,100072.00
2017-11-30T22:42:49.647Z,100067.39
2017-11-30T22:45:18.009Z,100069.62
2017-11-30T22:47:45.899Z,100072.62
2017-11-30T22:50:14.376Z,100073.73
2017-11-30T22:52:42.304Z,100071.48
2017-11-30T22:55:10.215Z,100067.07
2017-11-30T22:57:38.155Z,100073.95
2017-11-30T23:00:06.079Z,100072.28
2017-11-30T23:02:34.093Z,100068.02
2017-11-30T23:05:02.036Z,100080.99
2017-11-30T23:07:29.931Z,100078.62
2017-11-30T23:09:57.849Z,100080.84
2017-11-30T23:12:25.843Z,100081.95
2017-11-30T23:14:53.744Z,100087.13
2017-11-30T23:17:21.648Z,100085.44
2017-11-30T23:19:49.570Z,100087.28
2017-11-30T23:22:17.532Z,100082.95
2017-11-30T23:24:45.427Z,100097.02
2017-11-30T23:27:13.734Z,100095.23
2017-11-30T23:29:41.638Z,100098.22
2017-11-30T23:32:09.543Z,100097.89
2017-11-30T23:34:37.850Z,100098.30
2017-11-30T23:37:05.756Z,100106.06
2017-11-30T23:39:33.650Z,100096.62
2017-11-30T23:42:02.043Z,100101.95
2017-11-30T23:44:29.965Z,100104.64
2017-11-30T23:46:58.054Z,100107.84
2017-11-30T23:49:25.959Z,100112.29
2017-11-30T23:51:53.980Z,100107.81
2017-11-30T23:54:21.887Z,100110.31
2017-11-30T23:56:49.830Z,100105.23
2017-11-30T23:59:17.736Z,100104.84
